Time;durP1;ratioP1;P1;durP2;ratioP2;P2;SDS_P1;SDS_P2;PMS_P1;PMS_P2;Temp;Humidity;BMP_temperature;BMP_pressure;BME280_temperature;BME280_humidity;BME280_pressure;Samples;Min_cycle;Max_cycle;Signal;HPM_P1;HPM_P2
2024/04/06 00:00:51;;;;;;;;;;;;;;;13.31;94.49;101175.84;106794;1275;22629;-52
2024/04/06 00:03:17;;;;;;;;;;;;;;;13.30;94.43;101169.52;106833;1275;22456;-52
2024/04/06 00:05:44;;;;;;;;;;;;;;;13.30;94.35;101166.38;106801;1275;22632;-53
2024/04/06 00:08:10;;;;;;;;;;;;;;;13.29;94.10;101169.58;106799;1275;22688;-53
2024/04/06 00:10:42;;;;;;;;;;;;;;;13.27;93.71;101168.64;106938;1268;22442;-52
2024/04/06 00:13:12;;;;;;;;;;;;;;;13.25;93.82;101168.75;107048;1275;24174;-52
2024/04/06 00:15:38;;;;;;;;;;;;;;;13.23;93.21;101161.80;107026;1274;24239;-51
2024/04/06 00:18:05;;;;;;;;;;;;;;;13.21;92.69;101156.97;106952;1275;22545;-52
2024/04/06 00:20:34;;;;;;;;;;;;;;;13.19;92.94;101158.66;106857;1274;25266;-52
2024/04/06 00:23:01;;;;;;;;;;;;;;;13.17;93.10;101158.42;106888;1268;22787;-50
2024/04/06 00:25:27;;;;;;;;;;;;;;;13.13;92.55;101159.38;106882;1274;24344;-53
2024/04/06 00:27:54;;;;;;;;;;;;;;;13.08;91.91;101166.25;106886;1274;22632;-53
2024/04/06 00:30:21;;;;;;;;;;;;;;;13.04;91.65;101175.21;106963;1274;25386;-52
2024/04/06 00:32:52;;;;;;;;;;;;;;;13.00;91.76;101175.09;107013;1274;24213;-52
2024/04/06 00:35:18;;;;;;;;;;;;;;;12.97;92.23;101171.23;107095;1274;22465;-51
2024/04/06 00:37:45;;;;;;;;;;;;;;;12.94;92.27;101172.25;107023;1274;24280;-51
2024/04/06 00:40:11;;;;;;;;;;;;;;;12.92;91.75;101173.48;106950;1274;22485;-52
2024/04/06 00:42:40;;;;;;;;;;;;;;;12.88;91.46;101182.36;106903;1274;22641;-52
2024/04/06 00:45:07;;;;;;;;;;;;;;;12.84;91.16;101178.38;106941;1274;22661;-52
2024/04/06 00:47:34;;;;;;;;;;;;;;;12.79;91.27;101182.73;107067;1274;25379;-53
2024/04/06 00:50:08;;;;;;;;;;;;;;;12.75;90.95;101183.90;107022;1274;22797;-50
2024/04/06 00:52:35;;;;;;;;;;;;;;;12.71;91.19;101186.08;107130;1274;25392;-53
2024/04/06 00:55:02;;;;;;;;;;;;;;;12.68;91.61;101187.52;106957;1275;25502;-50
2024/04/06 00:57:29;;;;;;;;;;;;;;;12.65;92.00;101183.23;106941;1275;22529;-49
2024/04/06 00:59:55;;;;;;;;;;;;;;;12.65;93.27;101189.42;106860;1274;25204;-52
2024/04/06 01:02:22;;;;;;;;;;;;;;;12.69;94.23;101189.39;106868;1274;24203;-52
2024/04/06 01:04:48;;;;;;;;;;;;;;;12.70;94.45;101185.75;106853;1275;23537;-53
2024/04/06 01:07:15;;;;;;;;;;;;;;;12.73;95.24;101189.11;106838;1274;24176;-50
2024/04/06 01:09:41;;;;;;;;;;;;;;;12.78;95.21;101186.92;106842;1274;24246;-51
2024/04/06 01:12:09;;;;;;;;;;;;;;;12.80;95.66;101183.05;106838;1274;25311;-52
2024/04/06 01:14:35;;;;;;;;;;;;;;;12.81;95.66;101188.31;107036;1275;22522;-54
2024/04/06 01:17:05;;;;;;;;;;;;;;;12.81;95.46;101185.12;106973;1274;25149;-52
2024/04/06 01:19:34;;;;;;;;;;;;;;;12.81;95.48;101187.99;107020;1274;24354;-51
2024/04/06 01:22:00;;;;;;;;;;;;;;;12.81;96.03;101191.18;106856;1274;23867;-53
2024/04/06 01:24:27;;;;;;;;;;;;;;;12.80;96.18;101193.86;106867;1275;25389;-50
2024/04/06 01:26:58;;;;;;;;;;;;;;;12.80;96.32;101195.13;106882;1275;22439;-52
2024/04/06 01:29:25;;;;;;;;;;;;;;;12.80;96.68;101193.31;106865;1274;24152;-53
2024/04/06 01:31:52;;;;;;;;;;;;;;;12.83;96.98;101191.41;106999;1275;22618;-52
2024/04/06 01:34:19;;;;;;;;;;;;;;;12.86;97.31;101188.38;106989;1275;22509;-51
2024/04/06 01:36:45;;;;;;;;;;;;;;;12.89;97.40;101183.21;106839;1274;22645;-53
2024/04/06 01:39:12;;;;;;;;;;;;;;;12.90;97.48;101178.17;107069;1274;22521;-53
2024/04/06 01:41:46;;;;;;;;;;;;;;;12.93;97.58;101184.55;106933;1274;22422;-53
2024/04/06 01:44:12;;;;;;;;;;;;;;;12.97;97.69;101186.98;106829;1275;22495;-53
2024/04/06 01:46:39;;;;;;;;;;;;;;;12.98;97.88;101186.23;106961;1275;22546;-49
2024/04/06 01:49:05;;;;;;;;;;;;;;;12.98;97.97;101184.43;106939;1275;22628;-49
2024/04/06 01:51:32;;;;;;;;;;;;;;;12.99;97.85;101179.95;106883;1274;22634;-50
2024/04/06 01:53:58;;;;;;;;;;;;;;;13.00;98.05;101178.31;107077;1274;22488;-47
2024/04/06 01:56:28;;;;;;;;;;;;;;;13.01;98.12;101176.84;107033;1274;22535;-49
2024/04/06 01:58:55;;;;;;;;;;;;;;;13.01;98.27;101183.36;107005;1275;22502;-49
2024/04/06 02:01:22;;;;;;;;;;;;;;;13.02;98.45;101183.64;106869;1274;23826;-50
2024/04/06 02:03:50;;;;;;;;;;;;;;;13.03;98.63;101183.26;106826;1275;22656;-50
2024/04/06 02:06:18;;;;;;;;;;;;;;;13.03;98.71;101177.23;106709;1274;25517;-49
2024/04/06 02:08:48;;;;;;;;;;;;;;;13.05;98.98;101180.66;107111;1275;23859;-52
2024/04/06 02:11:14;;;;;;;;;;;;;;;13.07;99.07;101181.76;107045;1275;22636;-51
2024/04/06 02:13:41;;;;;;;;;;;;;;;13.09;99.24;101185.90;106991;1274;22453;-50
2024/04/06 02:16:07;;;;;;;;;;;;;;;13.11;99.27;101176.20;106964;1274;22809;-48
2024/04/06 02:18:34;;;;;;;;;;;;;;;13.13;99.32;101174.64;106869;1275;24152;-46
2024/04/06 02:21:00;;;;;;;;;;;;;;;13.15;99.40;101174.89;106941;1274;22464;-46
2024/04/06 02:23:27;;;;;;;;;;;;;;;13.14;99.41;101177.26;107068;1275;25263;-46
2024/04/06 02:25:53;;;;;;;;;;;;;;;13.14;99.35;101171.73;107020;1274;24138;-45
2024/04/06 02:28:20;;;;;;;;;;;;;;;13.13;99.31;101160.08;106919;1275;22692;-44
2024/04/06 02:30:46;;;;;;;;;;;;;;;13.14;99.38;101157.52;106869;1274;22442;-46
2024/04/06 02:33:13;;;;;;;;;;;;;;;13.16;99.29;101160.29;106855;1274;22495;-45
2024/04/06 02:35:39;;;;;;;;;;;;;;;13.17;99.35;101163.25;106852;1274;25371;-49
2024/04/06 02:38:06;;;;;;;;;;;;;;;13.17;99.14;101168.04;106968;1274;22463;-49
2024/04/06 02:40:33;;;;;;;;;;;;;;;13.17;99.15;101173.19;107140;1274;24142;-49
2024/04/06 02:43:02;;;;;;;;;;;;;;;13.17;99.18;101167.16;106939;1274;24354;-45
2024/04/06 02:45:29;;;;;;;;;;;;;;;13.18;99.26;101169.58;106959;1274;25362;-45
2024/04/06 02:47:56;;;;;;;;;;;;;;;13.18;99.25;101173.27;106993;1274;22543;-48
2024/04/06 02:50:22;;;;;;;;;;;;;;;13.19;99.14;101171.96;106997;1274;25879;-45
2024/04/06 02:52:49;;;;;;;;;;;;;;;13.21;99.11;101168.34;106930;1274;25415;-44
2024/04/06 02:55:15;;;;;;;;;;;;;;;13.21;99.21;101167.77;106975;1272;22684;-46
2024/04/06 02:57:43;;;;;;;;;;;;;;;13.21;99.10;101164.95;107004;1273;25372;-44
2024/04/06 03:00:10;;;;;;;;;;;;;;;13.20;99.18;101158.77;106974;1272;24260;-45
2024/04/06 03:02:37;;;;;;;;;;;;;;;13.20;99.01;101158.98;107063;1274;23711;-49
2024/04/06 03:05:04;;;;;;;;;;;;;;;13.19;98.86;101152.98;107007;1274;24273;-46
2024/04/06 03:07:31;;;;;;;;;;;;;;;13.18;99.00;101146.66;107063;1274;24591;-45
2024/04/06 03:09:58;;;;;;;;;;;;;;;13.18;98.96;101143.67;106911;1275;25349;-44
2024/04/06 03:12:24;;;;;;;;;;;;;;;13.16;98.91;101141.27;106923;1274;23219;-47
2024/04/06 03:14:52;;;;;;;;;;;;;;;13.14;98.83;101139.61;106977;1275;22454;-46
2024/04/06 03:17:18;;;;;;;;;;;;;;;13.14;98.95;101141.06;106977;1274;22519;-47
2024/04/06 03:19:45;;;;;;;;;;;;;;;13.13;98.89;101138.42;106946;1274;24235;-46
2024/04/06 03:22:13;;;;;;;;;;;;;;;13.12;98.75;101136.92;106990;1274;24183;-47
2024/04/06 03:24:40;;;;;;;;;;;;;;;13.13;98.75;101136.70;106968;1274;25390;-49
2024/04/06 03:27:07;;;;;;;;;;;;;;;13.12;98.79;101128.25;106909;1274;25166;-47
2024/04/06 03:29:33;;;;;;;;;;;;;;;13.10;98.70;101123.72;106817;1274;22628;-48
2024/04/06 03:32:00;;;;;;;;;;;;;;;13.10;98.61;101128.36;106852;1274;22645;-49
2024/04/06 03:34:26;;;;;;;;;;;;;;;13.09;98.52;101129.45;107025;1274;22493;-48
2024/04/06 03:36:53;;;;;;;;;;;;;;;13.07;98.56;101121.63;106961;1274;24463;-49
2024/04/06 03:39:19;;;;;;;;;;;;;;;13.06;98.57;101120.63;106914;1275;22624;-49
2024/04/06 03:41:46;;;;;;;;;;;;;;;13.04;98.40;101117.38;106911;1274;24296;-49
2024/04/06 03:44:12;;;;;;;;;;;;;;;13.02;98.49;101111.85;106978;1274;23770;-49
2024/04/06 03:46:39;;;;;;;;;;;;;;;13.00;98.46;101101.46;106869;1274;24402;-51
2024/04/06 03:49:06;;;;;;;;;;;;;;;13.02;98.52;101104.20;106831;1274;22503;-51
2024/04/06 03:51:32;;;;;;;;;;;;;;;13.02;98.48;101106.45;107043;1269;22480;-50
2024/04/06 03:53:59;;;;;;;;;;;;;;;13.03;98.39;101111.75;107140;1275;22501;-52
2024/04/06 03:56:25;;;;;;;;;;;;;;;13.03;98.10;101117.40;107105;1274;22499;-45
2024/04/06 03:58:52;;;;;;;;;;;;;;;13.02;97.68;101127.09;106830;1275;25348;-45
2024/04/06 04:01:18;;;;;;;;;;;;;;;13.00;97.45;101127.75;106928;1274;25335;-46
2024/04/06 04:03:45;;;;;;;;;;;;;;;12.97;97.22;101130.73;106995;1274;22636;-45
2024/04/06 04:06:11;;;;;;;;;;;;;;;12.95;96.81;101142.58;107049;1275;22537;-46
2024/04/06 04:08:38;;;;;;;;;;;;;;;12.93;96.84;101138.64;107071;1275;23884;-47
2024/04/06 04:11:04;;;;;;;;;;;;;;;12.90;96.76;101140.90;106849;1274;22656;-46
2024/04/06 04:13:31;;;;;;;;;;;;;;;12.87;96.95;101148.90;106847;1274;22451;-47
2024/04/06 04:15:58;;;;;;;;;;;;;;;12.85;97.00;101143.04;106809;1274;24271;-45
2024/04/06 04:18:24;;;;;;;;;;;;;;;12.81;96.82;101137.61;106938;1274;22588;-47
2024/04/06 04:20:51;;;;;;;;;;;;;;;12.76;96.83;101130.24;107050;1274;25354;-46
2024/04/06 04:23:17;;;;;;;;;;;;;;;12.72;96.71;101125.34;106853;1274;22563;-46
2024/04/06 04:25:44;;;;;;;;;;;;;;;12.69;96.89;101124.14;106846;1274;22589;-47
2024/04/06 04:28:10;;;;;;;;;;;;;;;12.64;97.14;101125.11;106826;1274;22481;-49
2024/04/06 04:30:37;;;;;;;;;;;;;;;12.62;97.21;101119.77;106866;1274;25221;-46
2024/04/06 04:33:03;;;;;;;;;;;;;;;12.59;97.30;101115.33;107003;1274;23111;-48
2024/04/06 04:35:30;;;;;;;;;;;;;;;12.57;97.36;101114.59;107100;1274;22529;-45
2024/04/06 04:37:56;;;;;;;;;;;;;;;12.56;97.32;101117.67;107047;1271;22807;-49
2024/04/06 04:40:26;;;;;;;;;;;;;;;12.54;97.21;101121.84;107008;1274;25221;-46
2024/04/06 04:42:52;;;;;;;;;;;;;;;12.51;97.31;101122.36;106871;1275;22641;-46
2024/04/06 04:45:19;;;;;;;;;;;;;;;12.46;97.48;101124.79;106877;1274;23857;-45
2024/04/06 04:47:45;;;;;;;;;;;;;;;12.44;97.64;101123.50;106827;1275;25336;-45
2024/04/06 04:50:14;;;;;;;;;;;;;;;12.41;98.02;101126.35;106883;1274;22501;-50
2024/04/06 04:52:41;;;;;;;;;;;;;;;12.38;98.20;101126.88;106856;1275;22505;-46
2024/04/06 04:55:13;;;;;;;;;;;;;;;12.37;98.36;101127.45;106813;1275;22992;-45
2024/04/06 04:57:39;;;;;;;;;;;;;;;12.35;98.82;101130.98;106868;1275;22495;-44
2024/04/06 05:00:07;;;;;;;;;;;;;;;12.32;99.00;101138.22;106875;1275;22433;-45
2024/04/06 05:02:33;;;;;;;;;;;;;;;12.32;99.26;101127.92;106894;1274;23367;-47
2024/04/06 05:05:00;;;;;;;;;;;;;;;12.33;99.36;101128.92;106840;1274;24117;-47
2024/04/06 05:07:26;;;;;;;;;;;;;;;12.31;99.22;101123.53;107062;1274;25271;-45
2024/04/06 05:09:53;;;;;;;;;;;;;;;12.32;99.34;101117.50;107002;1274;24210;-46
2024/04/06 05:12:20;;;;;;;;;;;;;;;12.32;99.24;101115.73;106985;1271;22540;-45
2024/04/06 05:14:46;;;;;;;;;;;;;;;12.31;99.35;101112.57;106984;1274;22542;-48
2024/04/06 05:17:13;;;;;;;;;;;;;;;12.31;99.31;101107.81;106906;1275;24631;-48
2024/04/06 05:19:40;;;;;;;;;;;;;;;12.30;99.54;101102.35;106975;1274;24304;-49
2024/04/06 05:22:08;;;;;;;;;;;;;;;12.30;99.65;101096.89;107058;1274;22478;-50
2024/04/06 05:24:35;;;;;;;;;;;;;;;12.29;99.63;101087.32;106866;1274;22493;-50
2024/04/06 05:27:02;;;;;;;;;;;;;;;12.30;99.80;101081.24;106797;1275;22434;-50
2024/04/06 05:29:29;;;;;;;;;;;;;;;12.32;99.81;101073.38;106883;1274;22624;-48
2024/04/06 05:31:57;;;;;;;;;;;;;;;12.33;99.93;101064.63;106874;1274;22628;-51
2024/04/06 05:34:26;;;;;;;;;;;;;;;12.33;99.85;101061.96;106988;1275;25426;-48
2024/04/06 05:36:53;;;;;;;;;;;;;;;12.33;99.87;101066.36;107011;1274;25374;-48
2024/04/06 05:39:22;;;;;;;;;;;;;;;12.34;99.99;101069.20;106853;1275;24242;-50
2024/04/06 05:41:49;;;;;;;;;;;;;;;12.34;99.93;101075.52;106949;1274;25194;-52
2024/04/06 05:44:15;;;;;;;;;;;;;;;12.31;99.99;101082.27;107092;1274;25313;-51
2024/04/06 05:46:42;;;;;;;;;;;;;;;12.31;99.97;101087.96;107067;1274;24165;-46
2024/04/06 05:49:08;;;;;;;;;;;;;;;12.30;100.00;101086.23;106894;1275;22630;-48
2024/04/06 05:51:36;;;;;;;;;;;;;;;12.32;100.00;101081.02;107047;1275;24535;-49
2024/04/06 05:54:03;;;;;;;;;;;;;;;12.33;100.00;101090.67;107010;1275;24210;-46
2024/04/06 05:56:30;;;;;;;;;;;;;;;12.34;100.00;101100.52;107023;1274;24143;-46
2024/04/06 05:58:56;;;;;;;;;;;;;;;12.36;100.00;101107.14;106889;1275;22445;-53
2024/04/06 06:01:23;;;;;;;;;;;;;;;12.40;100.00;101119.50;106901;1274;22439;-53
2024/04/06 06:03:50;;;;;;;;;;;;;;;12.42;100.00;101123.62;106891;1274;24251;-50
2024/04/06 06:06:16;;;;;;;;;;;;;;;12.43;100.00;101115.63;106998;1273;22500;-53
2024/04/06 06:08:43;;;;;;;;;;;;;;;12.42;100.00;101090.63;107006;1275;22487;-54
2024/04/06 06:11:09;;;;;;;;;;;;;;;12.42;99.97;101083.76;106881;1274;22484;-53
2024/04/06 06:13:35;;;;;;;;;;;;;;;12.41;100.00;101078.65;106886;1274;25159;-53
2024/04/06 06:16:02;;;;;;;;;;;;;;;12.41;100.00;101072.44;107041;1274;22435;-54
2024/04/06 06:18:29;;;;;;;;;;;;;;;12.43;100.00;101074.13;107004;1274;25347;-52
2024/04/06 06:20:55;;;;;;;;;;;;;;;12.45;100.00;101084.60;106938;1274;22492;-53
2024/04/06 06:23:22;;;;;;;;;;;;;;;12.49;100.00;101084.19;106984;1275;22425;-53
2024/04/06 06:25:48;;;;;;;;;;;;;;;12.54;100.00;101079.83;106859;1275;22519;-53
2024/04/06 06:28:16;;;;;;;;;;;;;;;12.59;100.00;101077.76;106913;1274;22470;-52
2024/04/06 06:30:42;;;;;;;;;;;;;;;12.64;100.00;101067.88;106970;1275;25262;-53
2024/04/06 06:33:09;;;;;;;;;;;;;;;12.68;100.00;101064.80;106981;1274;22489;-53
2024/04/06 06:35:36;;;;;;;;;;;;;;;12.72;100.00;101068.44;106852;1275;22532;-52
2024/04/06 06:38:22;;;;;;;;;;;;;;;12.75;100.00;101069.84;106873;1274;22634;-52
2024/04/06 06:40:54;;;;;;;;;;;;;;;12.78;99.92;101076.38;106927;1274;25419;-51
2024/04/06 06:43:20;;;;;;;;;;;;;;;12.82;99.83;101077.75;106863;1274;22455;-52
2024/04/06 06:45:47;;;;;;;;;;;;;;;12.86;99.92;101077.15;106920;1275;22447;-53
2024/04/06 06:48:13;;;;;;;;;;;;;;;12.92;99.99;101074.66;107001;1274;24164;-53
2024/04/06 06:50:40;;;;;;;;;;;;;;;12.99;99.98;101073.52;106921;1275;24222;-52
2024/04/06 06:53:06;;;;;;;;;;;;;;;13.06;99.92;101075.17;107043;1274;22547;-54
2024/04/06 06:55:33;;;;;;;;;;;;;;;13.14;99.27;101078.63;107045;1274;22731;-52
2024/04/06 06:58:00;;;;;;;;;;;;;;;13.21;98.86;101081.90;106882;1274;22659;-51
2024/04/06 07:00:29;;;;;;;;;;;;;;;13.27;98.77;101080.61;106823;1275;24168;-54
2024/04/06 07:02:56;;;;;;;;;;;;;;;13.34;98.28;101080.39;106876;1274;22491;-53
2024/04/06 07:05:22;;;;;;;;;;;;;;;13.40;97.95;101072.39;106868;1274;22423;-53
2024/04/06 07:07:53;;;;;;;;;;;;;;;13.45;97.40;101071.48;106895;1273;22614;-53
2024/04/06 07:10:20;;;;;;;;;;;;;;;13.53;97.09;101077.39;106936;1274;24050;-52
2024/04/06 07:12:47;;;;;;;;;;;;;;;13.61;96.96;101077.71;106870;1274;22692;-54
2024/04/06 07:15:13;;;;;;;;;;;;;;;13.72;97.04;101078.98;107006;1272;22530;-53
2024/04/06 07:17:40;;;;;;;;;;;;;;;13.82;96.84;101079.05;106943;1274;24203;-54
2024/04/06 07:20:08;;;;;;;;;;;;;;;13.91;96.43;101076.80;106821;1274;22497;-52
2024/04/06 07:22:41;;;;;;;;;;;;;;;14.03;95.95;101068.20;106876;1274;22447;-52
2024/04/06 07:25:07;;;;;;;;;;;;;;;14.14;95.42;101063.71;106918;1275;22614;-49
2024/04/06 07:27:34;;;;;;;;;;;;;;;14.25;94.95;101058.73;106909;1275;22466;-53
2024/04/06 07:30:00;;;;;;;;;;;;;;;14.37;94.84;101057.70;106887;1275;22498;-53
2024/04/06 07:32:27;;;;;;;;;;;;;;;14.49;94.05;101064.20;106961;1275;25239;-52
2024/04/06 07:34:53;;;;;;;;;;;;;;;14.60;93.63;101065.21;106875;1275;22482;-53
2024/04/06 07:37:23;;;;;;;;;;;;;;;14.73;93.10;101062.21;106845;1274;22515;-52
2024/04/06 07:39:49;;;;;;;;;;;;;;;14.87;92.75;101060.69;106838;1274;25395;-46
2024/04/06 07:42:19;;;;;;;;;;;;;;;15.01;92.49;101054.52;106821;1274;22502;-46
2024/04/06 07:44:45;;;;;;;;;;;;;;;15.15;91.98;101049.62;106862;1275;23749;-45
2024/04/06 07:47:12;;;;;;;;;;;;;;;15.29;91.35;101050.04;106887;1274;24276;-50
2024/04/06 07:49:38;;;;;;;;;;;;;;;15.41;90.64;101044.48;106865;1274;22516;-46
2024/04/06 07:52:05;;;;;;;;;;;;;;;15.53;89.34;101042.17;107126;1274;25321;-51
2024/04/06 07:54:32;;;;;;;;;;;;;;;15.65;89.15;101039.34;107142;1275;25842;-51
2024/04/06 07:56:58;;;;;;;;;;;;;;;15.78;88.88;101032.01;107084;1274;22530;-47
2024/04/06 07:59:25;;;;;;;;;;;;;;;15.91;88.17;101026.17;106906;1274;22495;-46
2024/04/06 08:01:51;;;;;;;;;;;;;;;16.05;86.92;101024.28;106974;1275;24132;-45
2024/04/06 08:04:19;;;;;;;;;;;;;;;16.18;86.34;101014.67;106989;1274;23873;-47
2024/04/06 08:06:45;;;;;;;;;;;;;;;16.32;85.87;101014.50;106827;1274;25311;-44
2024/04/06 08:09:12;;;;;;;;;;;;;;;16.45;85.38;101014.56;106826;1274;22446;-46
2024/04/06 08:11:38;;;;;;;;;;;;;;;16.58;84.78;101017.96;106826;1275;25396;-45
2024/04/06 08:14:05;;;;;;;;;;;;;;;16.71;82.61;101018.73;106886;1275;22442;-45
2024/04/06 08:16:42;;;;;;;;;;;;;;;16.83;81.96;101016.40;106994;1272;24010;-48
2024/04/06 08:19:08;;;;;;;;;;;;;;;16.96;81.81;101017.89;106995;1275;22540;-46
2024/04/06 08:21:35;;;;;;;;;;;;;;;17.09;80.58;101018.08;106830;1275;22485;-45
2024/04/06 08:24:01;;;;;;;;;;;;;;;17.20;78.95;101016.80;106863;1275;22582;-49
2024/04/06 08:26:28;;;;;;;;;;;;;;;17.31;78.81;101011.59;106991;1274;22589;-48
2024/04/06 08:28:55;;;;;;;;;;;;;;;17.44;78.70;101008.61;107084;1275;24028;-51
2024/04/06 08:31:21;;;;;;;;;;;;;;;17.57;78.00;101007.52;107019;1275;24074;-45
2024/04/06 08:33:48;;;;;;;;;;;;;;;17.69;77.09;101002.02;106929;1274;22555;-46
2024/04/06 08:36:15;;;;;;;;;;;;;;;17.80;76.28;100996.80;106863;1275;25329;-46
2024/04/06 08:38:41;;;;;;;;;;;;;;;17.93;75.39;100993.95;106860;1272;24566;-44
2024/04/06 08:41:08;;;;;;;;;;;;;;;18.05;75.05;100991.68;106864;1275;22513;-45
2024/04/06 08:43:35;;;;;;;;;;;;;;;18.15;74.06;100984.55;106975;1274;24218;-45
2024/04/06 08:46:03;;;;;;;;;;;;;;;18.26;73.76;100980.42;106997;1275;25359;-45
2024/04/06 08:48:32;;;;;;;;;;;;;;;18.38;73.58;100980.27;106968;1274;25874;-45
2024/04/06 08:51:00;;;;;;;;;;;;;;;18.50;73.12;100978.54;106829;1275;22548;-45
2024/04/06 08:53:26;;;;;;;;;;;;;;;18.61;72.58;100978.02;106892;1275;22429;-44
2024/04/06 08:55:53;;;;;;;;;;;;;;;18.73;71.29;100975.61;106823;1274;25395;-45
2024/04/06 08:58:19;;;;;;;;;;;;;;;18.83;70.42;100976.71;106981;1275;22813;-45
2024/04/06 09:00:47;;;;;;;;;;;;;;;18.93;70.03;100974.50;107005;1274;24282;-45
2024/04/06 09:03:14;;;;;;;;;;;;;;;19.04;69.86;100974.95;106965;1275;25909;-45
2024/04/06 09:05:44;;;;;;;;;;;;;;;19.15;69.01;100973.62;106832;1274;22627;-45
2024/04/06 09:08:14;;;;;;;;;;;;;;;19.27;68.39;100978.98;106839;1274;22493;-45
2024/04/06 09:10:41;;;;;;;;;;;;;;;19.39;68.61;100981.34;107015;1274;22896;-45
2024/04/06 09:13:11;;;;;;;;;;;;;;;19.52;69.08;100981.34;107134;1274;25449;-45
2024/04/06 09:15:38;;;;;;;;;;;;;;;19.66;68.13;100970.94;106993;1274;22446;-47
2024/04/06 09:18:04;;;;;;;;;;;;;;;19.78;67.81;100960.89;106981;1275;22490;-46
2024/04/06 09:20:31;;;;;;;;;;;;;;;19.91;67.25;100957.75;107063;1275;24194;-48
2024/04/06 09:22:58;;;;;;;;;;;;;;;20.02;66.84;100955.02;106999;1274;22501;-50
2024/04/06 09:25:25;;;;;;;;;;;;;;;20.15;67.31;100955.58;107073;1274;24185;-50
2024/04/06 09:27:51;;;;;;;;;;;;;;;20.31;66.80;100953.17;106931;1275;23993;-50
2024/04/06 09:30:25;;;;;;;;;;;;;;;20.42;64.71;100946.56;106842;1274;22659;-49
2024/04/06 09:32:51;;;;;;;;;;;;;;;20.55;65.36;100946.56;106999;1275;24637;-48
2024/04/06 09:35:18;;;;;;;;;;;;;;;20.69;64.80;100944.20;106886;1275;25226;-46
2024/04/06 09:37:45;;;;;;;;;;;;;;;20.82;64.24;100937.38;107097;1275;25654;-50
2024/04/06 09:40:11;;;;;;;;;;;;;;;20.95;63.40;100929.45;107076;1275;22464;-51
2024/04/06 09:42:38;;;;;;;;;;;;;;;21.07;62.68;100926.59;107020;1275;22453;-50
2024/04/06 09:45:05;;;;;;;;;;;;;;;21.18;62.50;100922.67;106935;1274;22486;-49
2024/04/06 09:47:32;;;;;;;;;;;;;;;21.27;62.56;100918.48;106934;1275;25169;-51
2024/04/06 09:49:59;;;;;;;;;;;;;;;21.36;61.12;100915.08;107020;1275;23334;-50
2024/04/06 09:52:26;;;;;;;;;;;;;;;21.40;59.81;100906.23;106940;1273;22830;-51
2024/04/06 09:54:52;;;;;;;;;;;;;;;21.44;59.66;100902.95;106945;1274;23863;-45
2024/04/06 09:57:19;;;;;;;;;;;;;;;21.52;59.49;100911.01;106861;1275;25406;-46
2024/04/06 09:59:46;;;;;;;;;;;;;;;21.58;59.19;100909.64;107153;1274;22444;-44
2024/04/06 10:02:22;;;;;;;;;;;;;;;21.64;59.10;100901.42;106999;1274;22427;-46
2024/04/06 10:04:55;;;;;;;;;;;;;;;21.71;59.10;100892.27;106938;1275;22506;-45
2024/04/06 10:07:28;;;;;;;;;;;;;;;21.76;57.22;100886.77;106859;1275;22452;-47
2024/04/06 10:10:01;;;;;;;;;;;;;;;21.77;57.10;100881.95;106936;1275;25336;-46
2024/04/06 10:12:41;;;;;;;;;;;;;;;21.79;56.92;100876.71;107023;1275;22815;-47
2024/04/06 10:15:10;;;;;;;;;;;;;;;21.83;57.35;100874.95;106975;1274;24235;-46
2024/04/06 10:17:40;;;;;;;;;;;;;;;21.85;57.23;100870.58;106989;1274;22739;-46
2024/04/06 10:20:11;;;;;;;;;;;;;;;21.86;56.66;100868.68;106943;1274;22520;-45
2024/04/06 10:22:44;;;;;;;;;;;;;;;21.86;56.37;100863.97;106836;1275;22443;-46
2024/04/06 10:25:11;;;;;;;;;;;;;;;21.87;56.85;100862.90;106879;1274;22755;-47
2024/04/06 10:27:40;;;;;;;;;;;;;;;21.92;57.49;100861.52;106822;1275;22513;-46
2024/04/06 10:30:07;;;;;;;;;;;;;;;21.95;56.80;100856.21;106857;1275;25238;-46
2024/04/06 10:32:34;;;;;;;;;;;;;;;21.95;56.66;100853.84;106857;1274;22447;-46
2024/04/06 10:35:04;;;;;;;;;;;;;;;21.97;56.96;100848.24;106828;1275;25396;-46
2024/04/06 10:37:33;;;;;;;;;;;;;;;22.02;57.38;100846.42;106871;1274;22652;-46
2024/04/06 10:39:59;;;;;;;;;;;;;;;22.11;57.08;100845.11;107051;1274;23753;-46
2024/04/06 10:42:26;;;;;;;;;;;;;;;22.19;56.42;100850.23;106946;1275;22437;-47
2024/04/06 10:44:52;;;;;;;;;;;;;;;22.25;55.90;100854.03;106881;1274;24351;-50
2024/04/06 10:47:19;;;;;;;;;;;;;;;22.28;55.92;100859.56;106863;1274;22539;-47
2024/04/06 10:49:48;;;;;;;;;;;;;;;22.33;55.87;100861.23;106939;1275;24320;-49
2024/04/06 10:52:17;;;;;;;;;;;;;;;22.36;55.81;100857.46;107105;1274;22520;-47
2024/04/06 10:54:44;;;;;;;;;;;;;;;22.38;55.06;100856.42;107061;1273;24702;-47
2024/04/06 10:57:10;;;;;;;;;;;;;;;22.40;55.12;100851.86;106940;1274;25320;-47
2024/04/06 10:59:37;;;;;;;;;;;;;;;22.45;54.30;100849.91;106832;1275;24180;-51
2024/04/06 11:02:05;;;;;;;;;;;;;;;22.48;53.70;100850.61;106836;1275;23930;-50
2024/04/06 11:04:43;;;;;;;;;;;;;;;22.53;53.98;100841.65;106859;1274;22496;-48
2024/04/06 11:07:10;;;;;;;;;;;;;;;22.62;54.27;100836.67;106921;1274;25354;-46
2024/04/06 11:09:37;;;;;;;;;;;;;;;22.71;54.11;100836.83;106981;1274;22623;-51
2024/04/06 11:12:03;;;;;;;;;;;;;;;22.81;54.27;100832.17;107081;1274;23280;-50
2024/04/06 11:14:30;;;;;;;;;;;;;;;22.92;53.63;100817.98;107018;1274;22606;-49
2024/04/06 11:16:59;;;;;;;;;;;;;;;22.99;52.48;100809.11;106951;1274;25204;-50
2024/04/06 11:19:26;;;;;;;;;;;;;;;23.05;51.25;100807.71;106846;1275;24318;-49
2024/04/06 11:21:53;;;;;;;;;;;;;;;23.10;51.12;100802.80;106813;1275;22624;-50
2024/04/06 11:24:24;;;;;;;;;;;;;;;23.16;50.98;100803.15;107049;1275;24199;-50
2024/04/06 11:26:51;;;;;;;;;;;;;;;23.23;51.02;100804.89;106933;1274;22501;-48
2024/04/06 11:29:17;;;;;;;;;;;;;;;23.27;50.56;100796.98;106934;1275;24186;-51
2024/04/06 11:31:44;;;;;;;;;;;;;;;23.33;50.94;100786.13;107028;1274;22618;-51
2024/04/06 11:34:10;;;;;;;;;;;;;;;23.36;50.72;100782.09;106987;1274;22450;-51
2024/04/06 11:36:37;;;;;;;;;;;;;;;23.42;51.26;100775.86;107048;1274;24140;-52
2024/04/06 11:39:03;;;;;;;;;;;;;;;23.50;51.44;100783.11;107153;1275;22512;-52
2024/04/06 11:41:30;;;;;;;;;;;;;;;23.58;51.20;100791.92;107112;1274;22449;-48
2024/04/06 11:43:56;;;;;;;;;;;;;;;23.67;51.65;100799.98;107041;1274;24249;-51
2024/04/06 11:46:23;;;;;;;;;;;;;;;23.73;51.07;100799.43;106957;1274;25227;-51
2024/04/06 11:48:49;;;;;;;;;;;;;;;23.77;50.68;100791.76;106865;1275;22499;-49
2024/04/06 11:51:16;;;;;;;;;;;;;;;23.85;50.19;100789.84;106853;1274;25830;-47
2024/04/06 11:53:42;;;;;;;;;;;;;;;23.92;50.01;100789.92;107096;1274;22549;-47
2024/04/06 11:56:13;;;;;;;;;;;;;;;24.00;50.24;100786.50;106937;1275;22423;-47
2024/04/06 11:58:40;;;;;;;;;;;;;;;24.09;50.32;100789.79;106862;1274;22767;-46
2024/04/06 12:01:06;;;;;;;;;;;;;;;24.20;50.00;100785.13;106852;1257;22801;-46
2024/04/06 12:03:32;;;;;;;;;;;;;;;24.29;49.58;100781.35;106847;1275;22468;-45
2024/04/06 12:05:59;;;;;;;;;;;;;;;24.38;49.16;100776.19;106827;1274;24177;-46
2024/04/06 12:08:26;;;;;;;;;;;;;;;24.44;48.65;100771.92;106857;1273;22435;-46
2024/04/06 12:10:52;;;;;;;;;;;;;;;24.49;48.26;100771.77;106873;1275;22675;-49
2024/04/06 12:13:19;;;;;;;;;;;;;;;24.54;47.86;100756.41;106960;1274;22436;-45
2024/04/06 12:15:45;;;;;;;;;;;;;;;24.59;47.76;100744.45;107043;1274;24271;-47
2024/04/06 12:18:14;;;;;;;;;;;;;;;24.64;48.01;100737.95;107032;1275;22520;-46
2024/04/06 12:20:41;;;;;;;;;;;;;;;24.75;48.09;100735.21;107011;1275;25388;-48
2024/04/06 12:23:08;;;;;;;;;;;;;;;24.87;47.61;100736.17;107144;1273;24255;-48
2024/04/06 12:25:35;;;;;;;;;;;;;;;24.98;47.19;100736.27;107064;1273;22568;-46